Weather at Belfast International Airport

Public forecast

Using degrees Celsius for public forecast. Weather courtesy of forecast.io.

Current aviation weather report (METAR) for Belfast International Airport

Retrieved 2020/11/29 03:20 UTC (0 seconds ago):

EGAA 290320Z AUTO 08005KT 6000 BKN016/// OVC021/// 07/06 Q1024

Aviation forecast (TAF) for Belfast International Airport

Retrieved 2020-11-29 00:00 UTC (3 hours ago):

TAF EGAA 282258Z 2900/2924 08005KT 9999 FEW008 BKN016 TEMPO 2900/2903 BKN014 TEMPO 2903/2906 BKN004 TEMPO 2906/2910 7000 -RADZ BKN004 BECMG 2910/2913 8000 -RADZ FEW002 BKN008 TEMPO 2910/2918 2000 DZ BR BKN002 PROB30 TEMPO 2910/2918 0500 FG BKN000